< < Back
Terminal Aerodrome Forecast


Current Version              Previous Versions:   1  2  3  4  5  6  7  8  9  

Terminal Aerodrome Forecast

082
FTUS44 KBMX 210200 AAB
TAFANB
TAF AMD
KANB 210220Z 2102/2124 09005KT P6SM VCTS SCT040CB
      TEMPO 2102/2104 VRB12G25KT 2SM +TSRA BR BKN020CB OVC035
     FM210500 00000KT P6SM SCT150
     FM211500 27006KT P6SM FEW045=



Latest METAR

845
SAUS70 KWBC 211000 RRE
MTRANB
METAR KANB 210953Z AUTO 05004KT 10SM CLR 21/20 A3012 RMK AO2 SLP189
T02110200 $


USA.gov is the U.S. government's official web portal to all federal, state and local government web resources and services.